createdAt,value
2019-04-07T00:01:13.683Z,8.67
2019-04-07T00:03:43.690Z,10.70
2019-04-07T00:06:14.472Z,8.87
2019-04-07T00:08:44.472Z,11.30
2019-04-07T00:11:15.039Z,8.47
2019-04-07T00:13:45.898Z,8.73
2019-04-07T00:16:16.054Z,9.20
2019-04-07T00:18:45.795Z,9.60
2019-04-07T00:21:15.518Z,10.93
2019-04-07T00:23:45.477Z,10.53
2019-04-07T00:26:15.316Z,11.10
2019-04-07T00:28:45.406Z,11.40
2019-04-07T00:31:15.475Z,10.80
2019-04-07T00:33:45.409Z,9.57
2019-04-07T00:36:15.224Z,9.70
2019-04-07T00:38:45.075Z,15.37
2019-04-07T00:41:14.860Z,10.43
2019-04-07T00:43:44.725Z,11.00
2019-04-07T00:46:14.613Z,9.33
2019-04-07T00:48:44.939Z,10.07
2019-04-07T00:51:14.806Z,9.70
2019-04-07T00:53:44.654Z,12.23
2019-04-07T00:56:14.646Z,10.40
2019-04-07T00:58:44.553Z,9.37
2019-04-07T01:01:17.603Z,11.73
2019-04-07T01:03:48.102Z,11.17
2019-04-07T01:06:17.917Z,10.47
2019-04-07T01:08:47.840Z,12.57
2019-04-07T01:11:17.712Z,10.87
2019-04-07T01:13:47.661Z,9.93
2019-04-07T01:16:17.372Z,10.97
2019-04-07T01:18:47.232Z,11.07
2019-04-07T01:21:17.674Z,11.13
2019-04-07T01:23:47.900Z,12.53
2019-04-07T01:26:18.494Z,12.63
2019-04-07T01:28:48.321Z,13.07
2019-04-07T01:31:18.764Z,14.57
2019-04-07T01:33:48.897Z,14.23
2019-04-07T01:36:19.037Z,12.53
2019-04-07T01:38:48.726Z,12.87
2019-04-07T01:41:38.263Z,14.87
2019-04-07T01:44:16.187Z,13.57
2019-04-07T01:46:55.984Z,11.80
2019-04-07T01:49:32.509Z,12.60
2019-04-07T01:52:21.179Z,14.73
2019-04-07T01:55:09.177Z,12.23
2019-04-07T01:57:57.905Z,12.23
2019-04-07T02:00:45.536Z,13.10
2019-04-07T02:03:27.586Z,12.33
2019-04-07T02:06:34.924Z,13.67
2019-04-07T02:09:31.575Z,13.27
2019-04-07T02:12:27.593Z,13.30
2019-04-07T02:15:13.829Z,13.50
2019-04-07T02:18:12.343Z,10.70
2019-04-07T02:21:03.218Z,12.43
2019-04-07T02:23:52.628Z,13.40
2019-04-07T02:26:47.242Z,13.93
2019-04-07T02:29:35.913Z,11.93
2019-04-07T02:32:29.279Z,12.77
2019-04-07T02:35:16.828Z,12.83
2019-04-07T02:38:06.255Z,15.07
2019-04-07T02:40:57.381Z,13.57
2019-04-07T02:43:34.042Z,14.33
2019-04-07T02:46:38.238Z,14.43
2019-04-07T02:49:14.897Z,13.40
2019-04-07T02:51:56.153Z,15.57
2019-04-07T02:54:57.341Z,15.17
2019-04-07T02:57:52.126Z,15.77
2019-04-07T03:00:37.988Z,17.60
2019-04-07T03:03:39.483Z,18.30
2019-04-07T03:06:37.682Z,17.13
2019-04-07T03:09:25.904Z,13.77
2019-04-07T03:12:13.899Z,16.40
2019-04-07T03:14:50.745Z,16.53
2019-04-07T03:17:35.999Z,16.27
2019-04-07T03:20:25.599Z,16.57
2019-04-07T03:23:13.150Z,16.20
2019-04-07T03:26:04.170Z,18.13
2019-04-07T03:28:59.204Z,19.83
2019-04-07T03:31:59.157Z,17.03
2019-04-07T03:34:46.877Z,17.40
2019-04-07T03:37:37.084Z,18.37
2019-04-07T03:40:06.959Z,18.47
2019-04-07T03:42:55.287Z,17.83
2019-04-07T03:45:47.183Z,16.07
2019-04-07T03:48:21.609Z,19.10
2019-04-07T03:50:57.267Z,18.63
2019-04-07T03:53:48.917Z,17.83
2019-04-07T03:56:37.562Z,16.77
2019-04-07T03:59:24.899Z,17.23
2019-04-07T04:02:12.603Z,19.77
2019-04-07T04:04:53.809Z,20.97
2019-04-07T04:07:33.092Z,18.03
2019-04-07T04:10:24.833Z,17.57
2019-04-07T04:13:02.463Z,19.63
2019-04-07T04:15:36.455Z,19.07
2019-04-07T04:18:06.693Z,17.43
2019-04-07T04:20:37.235Z,17.97
2019-04-07T04:23:07.870Z,17.77
2019-04-07T04:25:38.519Z,19.53
2019-04-07T04:28:08.502Z,20.93
2019-04-07T04:30:38.299Z,18.60
2019-04-07T04:33:08.917Z,21.07
2019-04-07T04:35:38.892Z,19.90
2019-04-07T04:38:08.668Z,18.10
2019-04-07T04:40:39.467Z,18.63
2019-04-07T04:43:10.418Z,19.10
2019-04-07T04:45:40.631Z,18.87
2019-04-07T04:48:10.472Z,20.93
2019-04-07T04:50:40.501Z,21.90
2019-04-07T04:53:10.764Z,20.43
2019-04-07T04:55:40.786Z,21.60
2019-04-07T04:58:11.208Z,20.60
2019-04-07T05:00:41.448Z,20.53
2019-04-07T05:03:11.598Z,19.90
2019-04-07T05:05:41.484Z,21.17
2019-04-07T05:08:11.525Z,20.27
2019-04-07T05:10:41.634Z,23.50
2019-04-07T05:13:11.434Z,26.80
2019-04-07T05:15:41.345Z,25.03
2019-04-07T05:18:11.200Z,25.17
2019-04-07T05:20:44.315Z,25.93
2019-04-07T05:23:14.234Z,26.23
2019-04-07T05:25:44.914Z,24.57
2019-04-07T05:28:15.388Z,27.13
2019-04-07T05:30:45.361Z,26.83
2019-04-07T05:33:15.398Z,27.23
2019-04-07T05:35:45.111Z,26.60
2019-04-07T05:38:15.940Z,26.93
2019-04-07T05:40:46.289Z,30.10
2019-04-07T05:43:16.230Z,27.67
2019-04-07T05:45:46.387Z,29.00
2019-04-07T05:48:18.538Z,28.00
2019-04-07T05:50:48.758Z,28.90
2019-04-07T05:53:19.045Z,30.87
2019-04-07T05:55:49.161Z,28.10
2019-04-07T05:58:18.979Z,28.90
2019-04-07T06:00:50.105Z,30.70
2019-04-07T06:03:20.488Z,28.60
2019-04-07T06:05:51.312Z,29.90
2019-04-07T06:08:29.339Z,29.13
2019-04-07T06:10:56.936Z,25.80
2019-04-07T06:13:24.737Z,26.17
2019-04-07T06:15:54.532Z,26.40
2019-04-07T06:18:24.917Z,26.03
2019-04-07T06:20:54.997Z,27.73
2019-04-07T06:23:27.533Z,27.37
2019-04-07T06:25:58.723Z,32.70
2019-04-07T06:28:28.155Z,30.47
2019-04-07T06:31:00.790Z,28.23
2019-04-07T06:33:30.462Z,28.00
2019-04-07T06:36:00.585Z,30.67
2019-04-07T06:38:34.550Z,30.37
2019-04-07T06:41:03.031Z,30.87
2019-04-07T06:43:35.214Z,27.37
2019-04-07T06:46:28.617Z,28.40
2019-04-07T06:49:16.674Z,28.27
2019-04-07T06:52:12.057Z,32.57
2019-04-07T06:55:10.178Z,26.83
2019-04-07T06:57:59.255Z,26.40
2019-04-07T07:00:46.689Z,30.37
2019-04-07T07:03:38.113Z,30.43
2019-04-07T07:06:17.378Z,28.40
2019-04-07T07:09:07.243Z,31.70
2019-04-07T07:11:56.416Z,27.17
2019-04-07T07:15:00.913Z,29.80
2019-04-07T07:17:56.188Z,29.33
2019-04-07T07:20:55.714Z,28.90
2019-04-07T07:23:29.458Z,26.67
2019-04-07T07:26:02.833Z,31.83
2019-04-07T07:28:31.575Z,26.43
2019-04-07T07:31:02.160Z,23.10
2019-04-07T07:33:32.099Z,27.47
2019-04-07T07:36:02.400Z,25.97
2019-04-07T07:38:33.421Z,25.40
2019-04-07T07:41:04.630Z,28.43
2019-04-07T07:43:34.771Z,26.33
2019-04-07T07:46:05.509Z,27.47
2019-04-07T07:48:35.672Z,28.53
2019-04-07T07:51:07.059Z,30.50
2019-04-07T07:53:37.250Z,30.10
2019-04-07T07:56:10.581Z,25.50
2019-04-07T07:58:38.713Z,26.70
2019-04-07T08:01:11.831Z,26.43
2019-04-07T08:03:40.493Z,26.63
2019-04-07T08:06:10.824Z,28.80
2019-04-07T08:08:40.642Z,28.37
2019-04-07T08:11:11.224Z,26.17
2019-04-07T08:13:44.553Z,26.17
2019-04-07T08:16:12.743Z,26.10
2019-04-07T08:18:45.190Z,26.23
2019-04-07T08:21:17.136Z,25.67
2019-04-07T08:23:45.611Z,27.13
2019-04-07T08:26:15.882Z,26.40
2019-04-07T08:28:45.773Z,27.10
2019-04-07T08:31:19.669Z,25.67
2019-04-07T08:33:50.088Z,22.42
2019-04-07T08:36:19.366Z,23.67
2019-04-07T08:38:51.758Z,24.27
2019-04-07T08:41:20.652Z,21.37
2019-04-07T08:43:53.250Z,20.37
2019-04-07T08:46:22.014Z,19.37
2019-04-07T08:48:54.428Z,22.55
2019-04-07T08:51:24.953Z,23.50
2019-04-07T08:53:54.880Z,22.27
2019-04-07T08:56:26.532Z,25.90
2019-04-07T08:58:56.709Z,20.08
2019-04-07T09:01:28.772Z,21.17
2019-04-07T09:03:58.549Z,20.37
2019-04-07T09:06:29.396Z,21.60
2019-04-07T09:09:00.379Z,21.15
2019-04-07T09:11:32.258Z,22.52
2019-04-07T09:14:06.023Z,22.02
2019-04-07T09:16:59.180Z,24.57
2019-04-07T09:19:48.022Z,22.02
2019-04-07T09:22:36.772Z,21.85
2019-04-07T09:25:22.576Z,19.98
2019-04-07T09:28:11.107Z,19.90
2019-04-07T09:30:47.150Z,19.57
2019-04-07T09:33:35.655Z,20.20
2019-04-07T09:36:24.624Z,21.70
2019-04-07T09:39:25.454Z,18.50
2019-04-07T09:42:32.355Z,18.95
2019-04-07T09:45:30.066Z,17.25
2019-04-07T09:48:22.906Z,20.77
2019-04-07T09:51:15.346Z,15.88
2019-04-07T09:54:02.991Z,12.03
2019-04-07T09:56:50.795Z,12.50
2019-04-07T09:59:46.583Z,14.53
2019-04-07T10:02:40.604Z,11.15
2019-04-07T10:05:30.855Z,9.30
2019-04-07T10:08:18.949Z,9.93
2019-04-07T10:11:06.870Z,7.65
2019-04-07T10:13:47.567Z,8.48
2019-04-07T10:16:36.252Z,6.50
2019-04-07T10:19:31.674Z,7.85
2019-04-07T10:22:39.541Z,8.13
2019-04-07T10:25:26.901Z,7.20
2019-04-07T10:28:21.173Z,7.28
2019-04-07T10:31:00.353Z,6.50
2019-04-07T10:33:49.448Z,7.35
2019-04-07T10:36:47.542Z,8.98
2019-04-07T10:39:25.192Z,9.38
2019-04-07T10:42:29.300Z,6.35
2019-04-07T10:45:24.942Z,10.82
2019-04-07T10:48:16.355Z,10.00
2019-04-07T10:51:10.741Z,10.43
2019-04-07T10:54:04.984Z,9.80
2019-04-07T10:56:54.155Z,11.38
2019-04-07T10:59:43.039Z,10.08
2019-04-07T11:02:47.817Z,9.70
2019-04-07T11:05:49.234Z,11.38
2019-04-07T11:08:41.115Z,13.10
2019-04-07T11:11:30.390Z,11.28
2019-04-07T11:14:21.909Z,10.63
2019-04-07T11:17:00.231Z,12.05
2019-04-07T11:19:38.503Z,9.55
2019-04-07T11:22:42.913Z,10.50
2019-04-07T11:25:27.253Z,11.40
2019-04-07T11:28:14.767Z,11.88
2019-04-07T11:31:02.295Z,9.28
2019-04-07T11:33:38.063Z,10.55
2019-04-07T11:36:20.111Z,9.98
2019-04-07T11:39:10.118Z,8.50
2019-04-07T11:42:07.675Z,8.08
2019-04-07T11:44:55.626Z,6.92
2019-04-07T11:47:52.538Z,6.17
2019-04-07T11:50:41.719Z,6.05
2019-04-07T11:53:30.626Z,8.03
2019-04-07T11:56:22.857Z,8.05
2019-04-07T11:59:10.201Z,9.75
2019-04-07T12:01:59.719Z,6.75
2019-04-07T12:04:47.901Z,7.85
2019-04-07T12:07:46.138Z,6.62
2019-04-07T12:10:34.339Z,5.60
2019-04-07T12:13:29.645Z,7.12
2019-04-07T12:16:27.839Z,6.62
2019-04-07T12:19:04.483Z,7.78
2019-04-07T12:21:40.844Z,6.22
2019-04-07T12:24:28.666Z,6.12
2019-04-07T12:27:05.283Z,6.20
2019-04-07T12:29:47.231Z,6.75
2019-04-07T12:32:35.969Z,6.55
2019-04-07T12:35:18.415Z,7.08
2019-04-07T12:38:09.998Z,5.90
2019-04-07T12:41:19.259Z,6.12
2019-04-07T12:44:04.894Z,7.62
2019-04-07T12:46:53.996Z,6.22
2019-04-07T12:49:34.380Z,6.05
2019-04-07T12:52:35.484Z,6.33
2019-04-07T12:55:23.579Z,5.72
2019-04-07T12:58:11.750Z,4.65
2019-04-07T13:01:09.724Z,5.17
2019-04-07T13:04:05.768Z,4.70
2019-04-07T13:06:45.212Z,4.03
2019-04-07T13:09:32.353Z,3.98
2019-04-07T13:12:22.937Z,5.85
2019-04-07T13:15:00.070Z,4.28
2019-04-07T13:17:51.630Z,4.37
2019-04-07T13:20:53.257Z,3.98
2019-04-07T13:23:36.990Z,4.40
2019-04-07T13:26:32.054Z,3.55
2019-04-07T13:29:04.342Z,3.65
2019-04-07T13:32:12.190Z,3.90
2019-04-07T13:35:18.527Z,4.03
2019-04-07T13:38:07.711Z,3.60
2019-04-07T13:41:09.457Z,5.25
2019-04-07T13:44:16.144Z,5.10
2019-04-07T13:47:14.597Z,4.42
2019-04-07T13:50:11.588Z,5.90
2019-04-07T13:52:59.103Z,4.83
2019-04-07T13:55:56.180Z,4.70
2019-04-07T13:58:37.492Z,3.75
2019-04-07T14:01:36.666Z,4.83
2019-04-07T14:04:34.602Z,4.60
2019-04-07T14:11:33.886Z,5.45
2019-04-07T14:23:20.709Z,4.25
2019-04-07T14:26:10.264Z,5.15
2019-04-07T14:29:03.007Z,4.15
2019-04-07T14:31:54.518Z,4.17
2019-04-07T14:34:43.093Z,5.15
2019-04-07T14:37:35.980Z,4.42
2019-04-07T14:40:26.124Z,5.72
2019-04-07T14:43:14.662Z,8.83
2019-04-07T14:46:06.406Z,6.87
2019-04-07T14:48:58.903Z,5.33
2019-04-07T14:52:00.317Z,4.47
2019-04-07T14:54:58.585Z,7.50
2019-04-07T14:57:45.858Z,12.23
2019-04-07T15:00:50.846Z,5.10
2019-04-07T15:03:30.668Z,5.20
2019-04-07T15:06:34.919Z,5.90
2019-04-07T15:09:13.307Z,6.67
2019-04-07T15:12:16.676Z,5.72
2019-04-07T15:14:39.730Z,4.92
2019-04-07T15:17:10.951Z,6.15
2019-04-07T15:40:19.195Z,6.40
2019-04-07T15:42:51.069Z,8.15
2019-04-07T15:45:21.643Z,6.75
2019-04-07T15:47:53.877Z,8.35
2019-04-07T15:50:23.373Z,6.30
2019-04-07T15:52:54.134Z,7.37
2019-04-07T15:55:36.967Z,7.37
2019-04-07T15:57:57.573Z,8.45
2019-04-07T16:00:28.406Z,7.85
2019-04-07T16:02:58.947Z,9.48
2019-04-07T16:05:28.984Z,7.17
2019-04-07T16:07:58.880Z,7.47
2019-04-07T16:10:29.106Z,7.08
2019-04-07T16:12:59.799Z,10.53
2019-04-07T16:15:30.725Z,7.37
2019-04-07T16:18:03.375Z,8.40
2019-04-07T16:20:38.064Z,12.28
2019-04-07T16:23:04.973Z,8.00
2019-04-07T16:25:36.563Z,8.63
2019-04-07T16:28:12.856Z,8.20
2019-04-07T16:30:41.491Z,8.95
2019-04-07T16:33:11.389Z,8.93
2019-04-07T16:35:43.564Z,8.58
2019-04-07T16:38:12.995Z,9.15
2019-04-07T16:40:44.636Z,8.58
2019-04-07T16:43:17.364Z,9.00
2019-04-07T16:45:47.100Z,8.95
2019-04-07T16:48:17.074Z,8.90
2019-04-07T16:50:51.833Z,10.32
2019-04-07T16:53:18.517Z,7.85
2019-04-07T16:55:52.736Z,8.55
2019-04-07T16:58:20.088Z,10.23
2019-04-07T17:00:50.905Z,8.23
2019-04-07T17:03:21.591Z,7.70
2019-04-07T17:05:55.714Z,10.23
2019-04-07T17:08:28.640Z,7.90
2019-04-07T17:11:04.471Z,8.78
2019-04-07T17:13:40.774Z,7.97
2019-04-07T17:16:04.792Z,8.65
2019-04-07T17:18:43.060Z,10.25
2019-04-07T17:21:16.106Z,8.08
2019-04-07T17:23:48.350Z,10.82
2019-04-07T17:26:18.507Z,8.78
2019-04-07T17:28:49.856Z,8.30
2019-04-07T17:31:20.831Z,10.20
2019-04-07T17:33:52.827Z,9.85
2019-04-07T17:36:23.990Z,9.20
2019-04-07T17:39:15.767Z,8.93
2019-04-07T17:41:48.307Z,10.68
2019-04-07T17:44:54.418Z,9.00
2019-04-07T17:47:31.655Z,11.60
2019-04-07T17:50:32.181Z,10.15
2019-04-07T17:53:29.636Z,11.35
2019-04-07T17:56:22.241Z,10.75
2019-04-07T17:59:01.753Z,11.40
2019-04-07T18:01:41.119Z,9.30
2019-04-07T18:04:30.587Z,11.07
2019-04-07T18:07:18.104Z,10.50
2019-04-07T18:10:13.539Z,11.30
2019-04-07T18:13:00.045Z,12.83
2019-04-07T18:15:44.484Z,11.03
2019-04-07T18:18:37.804Z,13.18
2019-04-07T18:21:23.991Z,10.73
2019-04-07T18:24:13.612Z,13.70
2019-04-07T18:26:54.854Z,11.55
2019-04-07T18:29:41.689Z,14.78
2019-04-07T18:32:44.891Z,11.73
2019-04-07T18:35:36.664Z,14.30
2019-04-07T18:38:24.072Z,14.63
2019-04-07T18:41:10.679Z,13.00
2019-04-07T18:43:53.771Z,14.33
2019-04-07T18:46:47.757Z,17.87
2019-04-07T18:49:49.597Z,15.63
2019-04-07T18:52:27.731Z,14.70
2019-04-07T18:55:13.848Z,15.70
2019-04-07T18:58:13.015Z,16.90
2019-04-07T19:01:07.337Z,23.07
2019-04-07T19:03:58.975Z,20.07
2019-04-07T19:06:50.761Z,19.35
2019-04-07T19:09:42.406Z,18.50
2019-04-07T19:12:30.422Z,19.32
2019-04-07T19:15:22.898Z,19.87
2019-04-07T19:18:09.913Z,21.97
2019-04-07T19:21:17.135Z,20.57
2019-04-07T19:24:10.327Z,58.95
2019-04-07T19:26:56.270Z,23.43
2019-04-07T19:29:39.132Z,22.40
2019-04-07T19:32:33.350Z,25.43
2019-04-07T19:35:25.875Z,26.67
2019-04-07T19:38:29.626Z,22.10
2019-04-07T19:41:21.510Z,24.57
2019-04-07T19:43:59.592Z,19.80
2019-04-07T19:47:00.102Z,20.53
2019-04-07T19:49:47.642Z,24.12
2019-04-07T19:52:38.515Z,22.13
2019-04-07T19:55:26.321Z,22.07
2019-04-07T19:58:14.130Z,21.43
2019-04-07T20:01:12.673Z,22.67
2019-04-07T20:04:01.958Z,21.43
2019-04-07T20:07:00.821Z,23.93
2019-04-07T20:09:55.447Z,26.93
2019-04-07T20:12:56.344Z,25.23
2019-04-07T20:15:47.864Z,25.10
2019-04-07T20:18:30.482Z,26.57
2019-04-07T20:21:13.183Z,26.90
2019-04-07T20:24:07.372Z,26.57
2019-04-07T20:27:04.812Z,22.67
2019-04-07T20:30:00.630Z,27.13
2019-04-07T20:32:58.441Z,26.30
2019-04-07T20:35:50.924Z,28.00
2019-04-07T20:38:49.933Z,24.97
2019-04-07T20:42:29.520Z,28.25
2019-04-07T20:45:22.715Z,29.73
2019-04-07T20:48:09.963Z,31.20
2019-04-07T20:51:10.321Z,27.27
2019-04-07T20:54:04.101Z,31.93
2019-04-07T20:57:05.705Z,28.73
2019-04-07T21:00:03.490Z,35.63
2019-04-07T21:03:17.823Z,26.17
2019-04-07T21:35:15.043Z,36.73
2019-04-07T21:38:08.871Z,34.80
2019-04-07T21:40:48.594Z,37.10
2019-04-07T21:43:57.990Z,39.70
2019-04-07T21:46:42.955Z,36.93
2019-04-07T21:49:43.989Z,38.63
2019-04-07T21:52:28.076Z,35.60
2019-04-07T21:55:17.637Z,34.73
2019-04-07T21:57:58.455Z,35.50
2019-04-07T22:00:47.682Z,39.03
2019-04-07T22:03:36.204Z,38.13
2019-04-07T22:06:44.338Z,39.33
2019-04-07T22:09:23.109Z,39.10
2019-04-07T22:11:55.994Z,39.13
2019-04-07T22:14:26.438Z,37.97
2019-04-07T22:17:00.341Z,35.87
2019-04-07T22:19:29.759Z,38.00
2019-04-07T22:22:00.368Z,35.73
2019-04-07T22:24:33.254Z,34.93
2019-04-07T22:27:04.295Z,38.17
2019-04-07T22:29:34.975Z,39.77
2019-04-07T22:32:07.397Z,44.10
2019-04-07T22:34:37.703Z,40.40
2019-04-07T22:37:07.816Z,40.40
2019-04-07T22:39:37.780Z,44.43
2019-04-07T22:42:08.554Z,41.30
2019-04-07T22:44:38.688Z,41.77
2019-04-07T22:47:10.901Z,37.17
2019-04-07T22:49:41.483Z,41.90
2019-04-07T22:52:11.830Z,37.60
2019-04-07T22:54:42.210Z,39.07
2019-04-07T22:57:15.060Z,43.10
2019-04-07T22:59:44.173Z,37.77
2019-04-07T23:02:14.142Z,40.60
2019-04-07T23:04:44.777Z,41.37
2019-04-07T23:07:15.918Z,39.27
2019-04-07T23:09:45.921Z,45.03
2019-04-07T23:12:16.851Z,41.17
2019-04-07T23:14:47.672Z,41.90
2019-04-07T23:17:17.983Z,45.17
2019-04-07T23:19:48.323Z,42.80
2019-04-07T23:22:18.491Z,41.40
2019-04-07T23:24:48.435Z,40.23
2019-04-07T23:27:18.480Z,38.63
2019-04-07T23:29:48.684Z,40.40
2019-04-07T23:32:19.132Z,50.93
2019-04-07T23:34:49.893Z,45.10
2019-04-07T23:37:20.147Z,44.23
2019-04-07T23:39:50.160Z,52.17
2019-04-07T23:42:20.147Z,43.73
2019-04-07T23:44:50.340Z,42.17
2019-04-07T23:47:20.305Z,42.10
2019-04-07T23:49:52.499Z,46.83
2019-04-07T23:52:22.977Z,48.83
2019-04-07T23:54:53.226Z,49.83
2019-04-07T23:57:23.934Z,50.43
2019-04-07T23:59:54.116Z,45.30
